Enumclaw, Washington
Current Conditions -  °F | °C
As of 9:53 AM on Thursday 18 Dec 2014 (Local Time) from KSEA Reporting Station
Overcast Overcast  
Wind Chill: 41°   Ceiling: 8000
Heat Index: 46°   Visibility: 10mi
Dew Point: 38°   Wind: 9mph
Humidity: 73%   Direction: 110°ESE
Pressure: 29.92"   Gusts: NA
Location:  47.2°N, 121.99°W
Report Text: KSEA 181753Z 11008KT 10SM FEW043 OVC080 08/03 A2992 RMK AO2 SLP140 T00780033 10078 20067 58005
Loading
Personal Weather Stations






























Interactive Weather Map New forecast layout! Learn more

10-Day Weather Forecast

Advertisements
Track Severe Weather on mobile